Main page
METAR-TAF:

METAR-TAF

Airports :

Kuito Airport

Kuito, Angola

latitude: 12-24-15S, longitude: 16-56-55E, elevation: 1712 m

Current weather observation

The report was made 4 hours and 54 minutes ago, at 16:00 UTC
Wind 8 kt from the East
Temperature 21°C
Humidity 94%
Pressure 1021 hPa
Visibility 10 km or more
Broken clouds at a height of 4000 ft
Few clouds , Cumulonimbus.
thunderstorm

METAR: FNKU 251600Z 09008KT 9999 TS BKN040 FEW///CB 21/20 Q1021

Time: 21:54 (20:54 UTC)

Forecast

The report was made 9 hours and 54 minutes ago, at 11:00 UTC
Forecast valid from 25 at 12 UTC to 25 at 24 UTC
Wind 4 kt from the East/Northeast
Visibility 10 km or more
Few clouds at a height of 1500 ft
Temporary
from 25 at 12 UTC to 25 at 16 UTC
Wind 4 kt from the Southwest
Visibility: 7000 m
Few clouds at a height of 1200 ft
Few clouds at a height of 2500 ft, Cumulonimbus.
Broken clouds at a height of 5000 ft
light drizzle

TAF: FNKU 251100Z 2512/2524 07004KT 9999 FEW015 TEMPO 2512/2516 22004KT 7000 -DZ FEW012 FEW025CB BKN050

Weather observations and forecasts of more than 4000 airports (METAR and TAF reports).

The available stations are represented by yellow and red dots on the map.

Hover mouse over dot to see the name of the station.

Then click to see weather observations and forecasts.

To change the map : click on the green buttons with a black cross to zoom in, on the green button with a dash to zoom out, or on the green arrows for adjacent maps.


METAR-TAF: